createdAt,value
2019-04-03T00:01:21.516Z,5.84
2019-04-03T00:03:53.443Z,5.81
2019-04-03T00:06:25.475Z,5.82
2019-04-03T00:08:57.485Z,5.72
2019-04-03T00:11:29.420Z,5.69
2019-04-03T00:14:01.346Z,5.65
2019-04-03T00:16:33.246Z,5.61
2019-04-03T00:19:05.556Z,5.55
2019-04-03T00:21:36.502Z,5.48
2019-04-03T00:24:09.179Z,5.43
2019-04-03T00:26:41.067Z,5.43
2019-04-03T00:29:13.052Z,5.40
2019-04-03T00:31:45.056Z,5.39
2019-04-03T00:34:17.125Z,5.36
2019-04-03T00:36:49.125Z,5.32
2019-04-03T00:39:22.661Z,5.32
2019-04-03T00:41:55.216Z,5.25
2019-04-03T00:44:27.286Z,5.21
2019-04-03T00:46:59.305Z,5.22
2019-04-03T00:49:31.511Z,5.22
2019-04-03T00:52:03.523Z,5.21
2019-04-03T00:54:35.596Z,5.18
2019-04-03T00:57:07.506Z,5.12
2019-04-03T00:59:39.446Z,5.04
2019-04-03T01:02:11.466Z,4.96
2019-04-03T01:04:44.069Z,4.91
2019-04-03T01:07:16.152Z,4.91
2019-04-03T01:09:48.085Z,4.89
2019-04-03T01:12:20.134Z,4.84
2019-04-03T01:14:53.074Z,4.83
2019-04-03T01:17:24.034Z,4.82
2019-04-03T01:19:55.814Z,4.76
2019-04-03T01:22:27.759Z,4.74
2019-04-03T01:24:59.808Z,4.71
2019-04-03T01:27:32.095Z,4.71
2019-04-03T01:30:04.276Z,4.68
2019-04-03T01:32:36.905Z,4.64
2019-04-03T01:35:09.733Z,4.56
2019-04-03T01:37:42.354Z,4.60
2019-04-03T01:40:14.266Z,4.60
2019-04-03T01:42:46.296Z,4.57
2019-04-03T01:45:18.434Z,4.50
2019-04-03T01:47:49.489Z,4.46
2019-04-03T01:50:21.364Z,4.42
2019-04-03T01:52:52.430Z,4.41
2019-04-03T01:55:24.363Z,4.37
2019-04-03T01:57:56.314Z,4.37
2019-04-03T02:00:28.395Z,4.38
2019-04-03T02:03:01.947Z,4.40
2019-04-03T02:05:33.997Z,4.37
2019-04-03T02:08:05.056Z,4.37
2019-04-03T02:10:37.277Z,4.33
2019-04-03T02:13:09.385Z,4.32
2019-04-03T02:15:41.313Z,4.31
2019-04-03T02:18:14.334Z,4.30
2019-04-03T02:20:46.274Z,4.27
2019-04-03T02:23:18.366Z,4.27
2019-04-03T02:25:50.268Z,4.24
2019-04-03T02:28:22.167Z,4.22
2019-04-03T02:30:55.237Z,4.19
2019-04-03T02:33:28.545Z,4.14
2019-04-03T02:35:59.829Z,4.11
2019-04-03T02:38:30.866Z,4.09
2019-04-03T02:41:04.052Z,4.07
2019-04-03T02:43:36.355Z,4.07
2019-04-03T02:46:08.105Z,4.07
2019-04-03T02:48:40.102Z,4.06
2019-04-03T02:51:12.596Z,4.04
2019-04-03T02:53:46.343Z,4.01
2019-04-03T02:56:18.290Z,3.98
2019-04-03T02:58:53.389Z,3.98
2019-04-03T03:01:23.999Z,3.98
2019-04-03T03:03:56.243Z,3.97
2019-04-03T03:06:31.791Z,3.94
2019-04-03T03:09:02.435Z,3.93
2019-04-03T03:11:35.623Z,3.94
2019-04-03T03:14:08.315Z,3.94
2019-04-03T03:16:40.747Z,3.94
2019-04-03T03:19:12.663Z,3.91
2019-04-03T03:21:45.544Z,3.89
2019-04-03T03:24:18.907Z,3.87
2019-04-03T03:26:51.796Z,3.85
2019-04-03T03:29:26.779Z,3.80
2019-04-03T03:32:11.633Z,3.76
2019-04-03T03:34:51.515Z,3.72
2019-04-03T03:37:12.185Z,3.70
2019-04-03T03:39:44.546Z,3.68
2019-04-03T03:42:16.898Z,3.66
2019-04-03T03:44:49.901Z,3.61
2019-04-03T03:47:21.919Z,3.59
2019-04-03T03:49:54.632Z,3.56
2019-04-03T03:52:27.082Z,3.54
2019-04-03T03:55:00.520Z,3.50
2019-04-03T03:57:33.569Z,3.45
2019-04-03T04:00:06.900Z,3.45
2019-04-03T04:02:43.258Z,3.43
2019-04-03T04:05:13.383Z,3.40
2019-04-03T04:07:44.457Z,3.42
2019-04-03T04:10:16.635Z,3.37
2019-04-03T04:12:49.692Z,3.40
2019-04-03T04:15:22.255Z,3.38
2019-04-03T04:17:54.776Z,3.38
2019-04-03T04:20:28.295Z,3.38
2019-04-03T04:23:01.226Z,3.37
2019-04-03T04:25:33.326Z,3.39
2019-04-03T04:28:04.894Z,3.38
2019-04-03T04:30:37.139Z,3.38
2019-04-03T04:33:08.010Z,3.38
2019-04-03T04:35:39.876Z,3.36
2019-04-03T04:38:10.904Z,3.35
2019-04-03T04:40:43.016Z,3.36
2019-04-03T04:43:15.186Z,3.40
2019-04-03T04:45:47.220Z,3.42
2019-04-03T04:48:20.750Z,3.46
2019-04-03T04:50:55.109Z,3.50
2019-04-03T04:53:29.371Z,3.53
2019-04-03T04:56:00.186Z,3.52
2019-04-03T04:58:32.129Z,3.57
2019-04-03T05:01:04.146Z,3.63
2019-04-03T05:03:36.235Z,3.66
2019-04-03T05:06:08.999Z,3.69
2019-04-03T05:08:41.342Z,3.74
2019-04-03T05:11:12.295Z,3.81
2019-04-03T05:13:46.411Z,3.88
2019-04-03T05:16:20.178Z,3.96
2019-04-03T05:18:51.746Z,4.05
2019-04-03T05:21:24.247Z,4.13
2019-04-03T05:24:05.261Z,4.20
2019-04-03T05:26:31.936Z,4.29
2019-04-03T05:29:04.674Z,4.35
2019-04-03T05:31:39.049Z,4.43
2019-04-03T05:34:12.665Z,4.50
2019-04-03T05:36:44.736Z,4.56
2019-04-03T05:39:15.740Z,4.63
2019-04-03T05:41:47.691Z,4.72
2019-04-03T05:44:22.956Z,4.81
2019-04-03T05:46:53.696Z,4.91
2019-04-03T05:49:25.874Z,5.05
2019-04-03T05:51:56.894Z,5.19
2019-04-03T05:54:29.130Z,5.30
2019-04-03T05:57:01.385Z,5.46
2019-04-03T05:59:33.822Z,5.64
2019-04-03T06:02:14.653Z,5.84
2019-04-03T06:04:40.812Z,6.03
2019-04-03T06:07:17.523Z,6.23
2019-04-03T06:09:48.857Z,6.39
2019-04-03T06:12:20.894Z,6.52
2019-04-03T06:14:52.849Z,6.65
2019-04-03T06:17:24.814Z,6.79
2019-04-03T06:19:56.746Z,6.94
2019-04-03T06:22:28.733Z,7.13
2019-04-03T06:25:01.034Z,7.35
2019-04-03T06:27:33.132Z,7.53
2019-04-03T06:30:06.598Z,7.72
2019-04-03T06:32:38.603Z,7.90
2019-04-03T06:35:13.346Z,8.08
2019-04-03T06:37:44.366Z,8.13
2019-04-03T06:40:16.709Z,8.30
2019-04-03T06:42:49.099Z,8.53
2019-04-03T06:45:21.205Z,8.69
2019-04-03T06:47:53.323Z,8.92
2019-04-03T06:50:24.398Z,9.11
2019-04-03T06:52:56.360Z,9.35
2019-04-03T06:55:27.404Z,9.53
2019-04-03T06:57:59.069Z,9.65
2019-04-03T07:00:31.177Z,9.88
2019-04-03T07:03:04.008Z,10.08
2019-04-03T07:05:36.946Z,10.15
2019-04-03T07:08:09.045Z,10.05
2019-04-03T07:10:41.137Z,10.19
2019-04-03T07:13:15.221Z,10.38
2019-04-03T07:15:47.386Z,10.66
2019-04-03T07:18:19.394Z,10.94
2019-04-03T07:20:52.279Z,11.18
2019-04-03T07:23:26.073Z,11.20
2019-04-03T07:25:58.217Z,11.39
2019-04-03T07:28:30.944Z,11.55
2019-04-03T07:31:03.216Z,11.92
2019-04-03T07:33:35.076Z,12.19
2019-04-03T07:36:07.046Z,12.46
2019-04-03T07:38:39.085Z,12.75
2019-04-03T07:41:11.230Z,12.70
2019-04-03T07:43:43.168Z,12.78
2019-04-03T07:46:15.106Z,12.79
2019-04-03T07:48:47.008Z,12.74
2019-04-03T07:51:18.949Z,12.72
2019-04-03T07:53:51.626Z,12.77
2019-04-03T07:56:25.571Z,13.08
2019-04-03T07:58:57.566Z,13.22
2019-04-03T08:01:29.701Z,13.28
2019-04-03T08:04:00.922Z,13.47
2019-04-03T08:06:33.010Z,13.86
2019-04-03T08:09:09.923Z,14.05
2019-04-03T08:11:42.745Z,14.24
2019-04-03T08:14:14.764Z,14.58
2019-04-03T08:16:48.195Z,14.75
2019-04-03T08:19:22.241Z,15.01
2019-04-03T08:21:54.294Z,15.31
2019-04-03T08:24:26.215Z,15.19
2019-04-03T08:26:58.164Z,15.17
2019-04-03T08:29:31.049Z,15.52
2019-04-03T08:32:03.807Z,16.09
2019-04-03T08:34:35.787Z,16.11
2019-04-03T08:37:10.358Z,16.19
2019-04-03T08:39:41.576Z,16.09
2019-04-03T08:42:13.808Z,16.08
2019-04-03T08:44:45.986Z,16.66
2019-04-03T08:47:18.389Z,17.13
2019-04-03T08:49:49.351Z,17.26
2019-04-03T08:52:21.157Z,17.36
2019-04-03T08:54:53.126Z,17.32
2019-04-03T08:57:25.086Z,17.45
2019-04-03T08:59:59.613Z,17.60
2019-04-03T09:02:30.926Z,17.64
2019-04-03T09:05:02.361Z,17.89
2019-04-03T09:07:34.207Z,17.95
2019-04-03T09:10:07.864Z,17.77
2019-04-03T09:12:41.247Z,18.00
2019-04-03T09:15:14.770Z,18.45
2019-04-03T09:17:46.873Z,18.49
2019-04-03T09:20:18.906Z,18.51
2019-04-03T09:22:52.974Z,18.35
2019-04-03T09:25:23.811Z,18.31
2019-04-03T09:27:56.045Z,18.40
2019-04-03T09:30:28.646Z,18.93
2019-04-03T09:33:00.863Z,19.28
2019-04-03T09:35:33.264Z,19.50
2019-04-03T09:38:04.395Z,19.84
2019-04-03T09:40:36.678Z,19.48
2019-04-03T09:43:08.746Z,19.54
2019-04-03T09:45:40.763Z,19.77
2019-04-03T09:48:12.771Z,20.08
2019-04-03T09:50:46.374Z,19.80
2019-04-03T09:53:18.658Z,20.29
2019-04-03T09:55:50.640Z,20.62
2019-04-03T09:58:22.637Z,20.65
2019-04-03T10:00:54.724Z,20.52
2019-04-03T10:03:27.016Z,20.29
2019-04-03T10:06:00.158Z,20.75
2019-04-03T10:08:33.056Z,20.57
2019-04-03T10:11:04.636Z,20.67
2019-04-03T10:13:37.576Z,20.50
2019-04-03T10:16:09.526Z,20.58
2019-04-03T10:18:42.330Z,20.46
2019-04-03T10:21:14.979Z,20.15
2019-04-03T10:23:46.966Z,21.24
2019-04-03T10:26:18.150Z,21.24
2019-04-03T10:28:50.473Z,22.02
2019-04-03T10:31:24.245Z,22.19
2019-04-03T10:33:56.788Z,22.27
2019-04-03T10:36:28.856Z,22.61
2019-04-03T10:39:01.130Z,22.34
2019-04-03T10:41:33.866Z,22.39
2019-04-03T10:44:08.178Z,21.91
2019-04-03T10:46:39.967Z,21.81
2019-04-03T10:49:12.084Z,21.35
2019-04-03T10:51:44.097Z,21.62
2019-04-03T10:54:16.269Z,21.82
2019-04-03T10:56:47.675Z,21.97
2019-04-03T10:59:19.536Z,22.12
2019-04-03T11:01:51.586Z,22.20
2019-04-03T11:04:23.525Z,22.42
2019-04-03T11:06:55.797Z,22.17
2019-04-03T11:09:27.888Z,22.19
2019-04-03T11:12:01.175Z,21.98
2019-04-03T11:14:33.296Z,22.05
2019-04-03T11:17:05.230Z,22.36
2019-04-03T11:19:38.187Z,22.66
2019-04-03T11:22:10.490Z,22.43
2019-04-03T11:24:43.391Z,22.05
2019-04-03T11:27:14.318Z,22.27
2019-04-03T11:29:46.231Z,22.38
2019-04-03T11:32:18.132Z,22.59
2019-04-03T11:34:50.217Z,22.34
2019-04-03T11:37:21.105Z,21.78
2019-04-03T11:40:02.780Z,21.40
2019-04-03T11:42:29.326Z,21.38
2019-04-03T11:45:04.345Z,21.50
2019-04-03T11:47:35.021Z,21.81
2019-04-03T11:50:08.849Z,21.77
2019-04-03T11:52:41.773Z,22.38
2019-04-03T11:55:15.551Z,21.92
2019-04-03T11:57:49.351Z,22.10
2019-04-03T12:00:31.351Z,22.71
2019-04-03T12:03:03.805Z,22.91
2019-04-03T12:05:36.083Z,23.05
2019-04-03T12:08:08.533Z,23.29
2019-04-03T12:10:40.636Z,23.12
2019-04-03T12:13:14.229Z,22.56
2019-04-03T12:15:46.791Z,22.35
2019-04-03T12:18:18.946Z,22.28
2019-04-03T12:20:51.096Z,22.55
2019-04-03T12:23:22.570Z,22.50
2019-04-03T12:25:54.394Z,22.20
2019-04-03T12:28:26.553Z,22.39
2019-04-03T12:30:58.516Z,22.47
2019-04-03T12:33:30.446Z,22.85
2019-04-03T12:36:02.434Z,22.29
2019-04-03T12:38:34.453Z,22.16
2019-04-03T12:41:06.620Z,22.23
2019-04-03T12:43:37.504Z,22.46
2019-04-03T12:46:09.802Z,22.41
2019-04-03T12:48:42.654Z,22.24
2019-04-03T12:51:14.753Z,21.88
2019-04-03T12:53:48.442Z,21.70
2019-04-03T12:56:20.265Z,21.91
2019-04-03T12:58:52.434Z,22.19
2019-04-03T13:01:25.483Z,22.37
2019-04-03T13:03:57.514Z,22.69
2019-04-03T13:06:29.593Z,22.86
2019-04-03T13:09:01.772Z,22.83
2019-04-03T13:11:35.128Z,22.76
2019-04-03T13:14:08.409Z,22.78
2019-04-03T13:16:41.780Z,23.03
2019-04-03T13:19:15.980Z,23.36
2019-04-03T13:21:48.196Z,23.30
2019-04-03T13:24:20.222Z,23.20
2019-04-03T13:26:52.759Z,23.18
2019-04-03T13:29:25.194Z,23.10
2019-04-03T13:31:56.212Z,22.66
2019-04-03T13:34:30.852Z,22.38
2019-04-03T13:37:02.195Z,22.34
2019-04-03T13:39:34.759Z,22.16
2019-04-03T13:42:07.293Z,22.21
2019-04-03T13:44:39.639Z,22.01
2019-04-03T13:47:11.739Z,21.42
2019-04-03T13:49:43.108Z,21.27
2019-04-03T13:52:15.393Z,21.59
2019-04-03T13:54:47.842Z,21.55
2019-04-03T13:57:20.416Z,21.50
2019-04-03T13:59:52.531Z,21.60
2019-04-03T14:02:25.626Z,21.51
2019-04-03T14:04:59.194Z,21.28
2019-04-03T14:07:31.604Z,20.91
2019-04-03T14:10:04.587Z,20.83
2019-04-03T14:12:38.749Z,20.82
2019-04-03T14:15:11.066Z,20.95
2019-04-03T14:17:54.125Z,21.09
2019-04-03T14:20:18.854Z,20.94
2019-04-03T14:22:51.004Z,20.75
2019-04-03T14:25:23.448Z,20.63
2019-04-03T14:27:55.992Z,20.69
2019-04-03T14:30:29.084Z,20.89
2019-04-03T14:33:01.129Z,20.83
2019-04-03T14:35:48.133Z,20.69
2019-04-03T14:38:05.785Z,20.20
2019-04-03T14:40:37.764Z,20.15
2019-04-03T14:43:09.841Z,19.92
2019-04-03T14:45:41.332Z,19.70
2019-04-03T14:48:13.146Z,19.52
2019-04-03T14:50:45.457Z,19.59
2019-04-03T14:53:17.826Z,19.43
2019-04-03T14:55:51.293Z,19.16
2019-04-03T14:58:25.479Z,18.99
2019-04-03T15:00:59.721Z,18.95
2019-04-03T15:03:34.050Z,18.67
2019-04-03T15:06:05.899Z,18.72
2019-04-03T15:08:38.964Z,18.79
2019-04-03T15:11:10.065Z,18.74
2019-04-03T15:13:42.102Z,18.48
2019-04-03T15:16:13.247Z,18.49
2019-04-03T15:18:45.144Z,18.41
2019-04-03T15:21:22.204Z,18.44
2019-04-03T15:23:53.076Z,18.29
2019-04-03T15:26:25.073Z,18.28
2019-04-03T15:29:00.003Z,17.97
2019-04-03T15:31:33.548Z,17.58
2019-04-03T15:34:05.715Z,17.41
2019-04-03T15:36:38.996Z,17.14
2019-04-03T15:39:17.165Z,16.92
2019-04-03T15:41:48.744Z,16.55
2019-04-03T15:44:21.584Z,16.50
2019-04-03T15:46:55.027Z,16.29
2019-04-03T15:49:27.815Z,16.15
2019-04-03T15:52:00.048Z,16.02
2019-04-03T15:54:33.662Z,15.90
2019-04-03T15:57:06.153Z,15.82
2019-04-03T15:59:38.714Z,15.72
2019-04-03T16:02:13.315Z,15.60
2019-04-03T16:04:45.546Z,15.43
2019-04-03T16:07:17.725Z,15.30
2019-04-03T16:09:51.277Z,15.15
2019-04-03T16:12:23.659Z,15.06
2019-04-03T16:14:55.746Z,14.85
2019-04-03T16:17:29.203Z,14.78
2019-04-03T16:20:01.528Z,14.66
2019-04-03T16:22:33.627Z,14.49
2019-04-03T16:25:06.280Z,14.37
2019-04-03T16:27:38.526Z,14.23
2019-04-03T16:30:14.226Z,14.03
2019-04-03T16:32:46.237Z,13.90
2019-04-03T16:35:18.475Z,13.85
2019-04-03T16:37:50.615Z,13.71
2019-04-03T16:40:23.611Z,13.63
2019-04-03T16:42:55.867Z,13.54
2019-04-03T16:45:26.944Z,13.46
2019-04-03T16:47:58.787Z,13.32
2019-04-03T16:50:30.453Z,13.33
2019-04-03T16:53:02.394Z,13.20
2019-04-03T16:55:34.574Z,13.10
2019-04-03T16:58:05.774Z,13.06
2019-04-03T17:00:40.380Z,13.00
2019-04-03T17:03:11.768Z,12.96
2019-04-03T17:05:43.620Z,12.90
2019-04-03T17:08:17.057Z,12.80
2019-04-03T17:10:49.282Z,12.75
2019-04-03T17:13:21.528Z,12.65
2019-04-03T17:15:55.497Z,12.62
2019-04-03T17:18:29.193Z,12.57
2019-04-03T17:21:00.674Z,12.57
2019-04-03T17:23:32.684Z,12.49
2019-04-03T17:26:04.010Z,12.48
2019-04-03T17:28:36.044Z,12.37
2019-04-03T17:31:07.526Z,12.31
2019-04-03T17:33:39.314Z,12.26
2019-04-03T17:36:11.720Z,12.19
2019-04-03T17:38:46.744Z,12.11
2019-04-03T17:41:17.574Z,12.09
2019-04-03T17:43:52.179Z,12.06
2019-04-03T17:46:28.303Z,12.00
2019-04-03T17:49:00.686Z,11.94
2019-04-03T17:51:33.644Z,11.94
2019-04-03T17:54:07.774Z,11.92
2019-04-03T17:56:42.708Z,11.94
2019-04-03T17:59:18.118Z,11.84
2019-04-03T18:01:52.161Z,11.79
2019-04-03T18:04:22.820Z,11.73
2019-04-03T18:06:57.253Z,11.65
2019-04-03T18:09:28.936Z,11.63
2019-04-03T18:12:01.097Z,11.63
2019-04-03T18:14:48.316Z,11.64
2019-04-03T18:17:25.597Z,11.61
2019-04-03T18:20:01.014Z,11.55
2019-04-03T18:22:34.766Z,11.51
2019-04-03T18:25:09.494Z,11.46
2019-04-03T18:27:41.694Z,11.45
2019-04-03T18:30:14.414Z,11.36
2019-04-03T18:32:46.737Z,11.30
2019-04-03T18:35:17.766Z,11.26
2019-04-03T18:37:49.546Z,11.21
2019-04-03T18:40:21.688Z,11.23
2019-04-03T18:42:53.746Z,11.17
2019-04-03T18:45:26.024Z,11.13
2019-04-03T18:47:58.329Z,11.09
2019-04-03T18:50:29.630Z,11.08
2019-04-03T18:53:01.727Z,11.00
2019-04-03T18:55:34.756Z,10.96
2019-04-03T18:58:06.255Z,10.89
2019-04-03T19:00:38.176Z,10.90
2019-04-03T19:03:10.286Z,10.83
2019-04-03T19:05:42.818Z,10.84
2019-04-03T19:08:18.163Z,10.80
2019-04-03T19:11:01.605Z,10.75
2019-04-03T19:13:25.414Z,10.73
2019-04-03T19:16:02.033Z,10.72
2019-04-03T19:18:33.190Z,10.68
2019-04-03T19:21:05.297Z,10.64
2019-04-03T19:23:48.904Z,10.62
2019-04-03T19:26:11.126Z,10.59
2019-04-03T19:28:44.277Z,10.55
2019-04-03T19:31:16.250Z,10.57
2019-04-03T19:33:48.238Z,10.51
2019-04-03T19:36:20.570Z,10.44
2019-04-03T19:38:53.611Z,10.40
2019-04-03T19:41:25.730Z,10.34
2019-04-03T19:44:00.564Z,10.29
2019-04-03T19:46:31.625Z,10.25
2019-04-03T19:49:03.796Z,10.24
2019-04-03T19:51:37.522Z,10.23
2019-04-03T19:54:09.655Z,10.19
2019-04-03T19:56:42.596Z,10.13
2019-04-03T19:59:15.868Z,10.10
2019-04-03T20:01:48.065Z,10.05
2019-04-03T20:04:20.027Z,10.05
2019-04-03T20:06:52.962Z,10.05
2019-04-03T20:09:25.562Z,10.03
2019-04-03T20:11:57.637Z,9.96
2019-04-03T20:14:29.577Z,9.93
2019-04-03T20:17:01.567Z,9.91
2019-04-03T20:19:32.694Z,9.88
2019-04-03T20:22:06.736Z,9.81
2019-04-03T20:24:38.466Z,9.81
2019-04-03T20:27:10.527Z,9.86
2019-04-03T20:29:42.426Z,9.84
2019-04-03T20:32:14.447Z,9.79
2019-04-03T20:34:46.386Z,9.78
2019-04-03T20:37:18.556Z,9.74
2019-04-03T20:39:50.792Z,9.71
2019-04-03T20:42:23.116Z,9.72
2019-04-03T20:44:55.175Z,9.67
2019-04-03T20:47:27.507Z,9.61
2019-04-03T20:49:59.591Z,9.55
2019-04-03T20:52:30.905Z,9.43
2019-04-03T20:55:03.979Z,9.47
2019-04-03T20:57:35.056Z,9.47
2019-04-03T21:00:11.901Z,9.43
2019-04-03T21:02:44.764Z,9.39
2019-04-03T21:05:18.723Z,9.35
2019-04-03T21:07:50.676Z,9.28
2019-04-03T21:10:22.646Z,9.24
2019-04-03T21:12:55.716Z,9.24
2019-04-03T21:15:27.753Z,9.27
2019-04-03T21:17:59.826Z,9.23
2019-04-03T21:20:31.815Z,9.21
2019-04-03T21:23:03.927Z,9.15
2019-04-03T21:25:36.669Z,9.10
2019-04-03T21:28:08.955Z,9.07
2019-04-03T21:30:46.306Z,9.01
2019-04-03T21:33:18.346Z,8.96
2019-04-03T21:35:50.376Z,8.91
2019-04-03T21:38:22.486Z,8.91
2019-04-03T21:40:55.835Z,8.89
2019-04-03T21:43:29.184Z,8.89
2019-04-03T21:48:47.868Z,8.88
2019-04-03T21:51:20.868Z,8.77
2019-04-03T21:53:55.708Z,8.75
2019-04-03T21:56:27.426Z,8.77
2019-04-03T21:58:59.525Z,8.73
2019-04-03T22:01:31.616Z,8.72
2019-04-03T22:04:03.575Z,8.65
2019-04-03T22:06:35.546Z,8.62
2019-04-03T22:09:12.262Z,8.57
2019-04-03T22:11:44.496Z,8.55
2019-04-03T22:14:16.666Z,8.52
2019-04-03T22:16:50.499Z,8.48
2019-04-03T22:19:22.136Z,8.46
2019-04-03T22:21:54.256Z,8.47
2019-04-03T22:24:26.315Z,8.46
2019-04-03T22:26:58.424Z,8.40
2019-04-03T22:29:30.508Z,8.34
2019-04-03T22:32:02.536Z,8.30
2019-04-03T22:34:35.415Z,8.30
2019-04-03T22:37:07.306Z,8.30
2019-04-03T22:39:39.836Z,8.24
2019-04-03T22:42:14.722Z,8.20
2019-04-03T22:44:47.892Z,8.18
2019-04-03T22:47:19.608Z,8.16
2019-04-03T22:49:52.169Z,8.15
2019-04-03T22:52:24.337Z,8.12
2019-04-03T22:54:56.226Z,8.09
2019-04-03T22:57:28.128Z,8.05
2019-04-03T23:00:00.287Z,7.98
2019-04-03T23:02:33.647Z,7.95
2019-04-03T23:05:06.028Z,7.95
2019-04-03T23:07:38.016Z,7.91
2019-04-03T23:10:10.796Z,7.91
2019-04-03T23:12:42.855Z,7.86
2019-04-03T23:15:15.085Z,7.79
2019-04-03T23:17:46.124Z,7.73
2019-04-03T23:20:18.146Z,7.72
2019-04-03T23:22:50.396Z,7.73
2019-04-03T23:25:23.107Z,7.69
2019-04-03T23:27:55.188Z,7.63
2019-04-03T23:30:27.296Z,7.55
2019-04-03T23:32:59.236Z,7.53
2019-04-03T23:35:32.117Z,7.53
2019-04-03T23:38:04.156Z,7.51
2019-04-03T23:40:36.266Z,7.48
2019-04-03T23:43:08.955Z,7.40
2019-04-03T23:45:43.523Z,7.38
2019-04-03T23:48:17.592Z,7.36
2019-04-03T23:50:52.369Z,7.30
2019-04-03T23:53:22.972Z,7.26
2019-04-03T23:55:55.116Z,7.23
2019-04-03T23:58:27.175Z,7.15
